Terminal Aerodrome Forecast
Issued by NWS Shreveport, LA

Home | Current Version | Previous Version | Text Only | Print | Product List | Glossary On
Versions: 1 2 3 4 5 6 7 8 9 10 11 12 13 14 15
696
FTUS44 KSHV 132132 AAA
TAFLFK
TAF AMD
KLFK 132132Z 1322/1418 12007KT P6SM SCT045 BKN060
     FM140000 13007KT P6SM BKN045
      TEMPO 1408/1412 3SM BR OVC025
     FM141200 13006KT 3SM BR OVC015
     FM141600 16010KT P6SM OVC015=

USA.gov is the U.S. government's official web portal to all federal, state and local government web resources and services.